Time;durP1;ratioP1;P1;durP2;ratioP2;P2;SDS_P1;SDS_P2;PMS_P1;PMS_P2;Temp;Humidity;BMP_temperature;BMP_pressure;BME280_temperature;BME280_humidity;BME280_pressure;Samples;Min_cycle;Max_cycle;Signal;HPM_P1;HPM_P2
2023/12/02 00:03:14;;;;;;;6.20;5.53;;;;;;;1.62;64.52;99150.38;10404578;28;20123;-64
2023/12/02 00:08:17;;;;;;;7.40;5.60;;;;;;;1.31;64.35;99137.34;10418656;28;20071;-65
2023/12/02 00:13:18;;;;;;;7.40;6.20;;;;;;;1.41;64.76;99158.59;10420161;28;20160;-64
2023/12/02 00:18:20;;;;;;;7.63;6.00;;;;;;;1.54;64.79;99156.91;10412738;28;20121;-63
2023/12/02 00:23:22;;;;;;;7.82;6.38;;;;;;;1.50;64.02;99151.94;10423190;28;20384;-65
2023/12/02 00:28:24;;;;;;;7.55;5.88;;;;;;;1.63;64.03;99144.19;10414037;28;21368;-64
2023/12/02 00:33:25;;;;;;;8.73;6.50;;;;;;;1.71;62.89;99153.28;10412185;28;20502;-65
2023/12/02 00:38:27;;;;;;;6.65;5.35;;;;;;;1.32;63.90;99104.94;10423175;28;20240;-62
2023/12/02 00:43:29;;;;;;;6.93;5.43;;;;;;;1.49;63.75;99114.41;10395019;28;20541;-62
2023/12/02 00:48:31;;;;;;;8.00;6.35;;;;;;;1.59;64.28;99143.50;10415010;28;20045;-62
2023/12/02 00:53:32;;;;;;;5.82;5.22;;;;;;;1.56;63.29;99127.97;10401035;28;20056;-62
2023/12/02 00:58:34;;;;;;;6.97;5.47;;;;;;;1.47;63.22;99141.66;10413841;28;20139;-63
2023/12/02 01:03:42;;;;;;;6.28;4.90;;;;;;;1.58;64.64;99133.97;10418308;28;20053;-63
2023/12/02 01:08:44;;;;;;;9.10;6.32;;;;;;;1.72;63.25;99139.19;10416489;28;21991;-62
2023/12/02 01:13:45;;;;;;;6.50;5.00;;;;;;;1.68;62.76;99137.72;10402843;28;20052;-61
2023/12/02 01:18:47;;;;;;;6.18;5.18;;;;;;;1.55;62.58;99163.03;10418890;28;20053;-63
2023/12/02 01:23:51;;;;;;;6.97;4.70;;;;;;;1.33;63.45;99164.28;10418856;28;20811;-63
2023/12/02 01:28:52;;;;;;;6.35;4.22;;;;;;;1.39;63.14;99179.66;10414114;28;20052;-62
2023/12/02 01:33:54;;;;;;;6.30;4.70;;;;;;;1.49;63.99;99173.88;10412698;28;20063;-62
2023/12/02 01:38:58;;;;;;;5.15;4.55;;;;;;;1.39;63.22;99148.19;10405203;28;20527;-63
2023/12/02 01:43:59;;;;;;;5.97;4.53;;;;;;;1.47;63.50;99187.09;10406460;28;20140;-62
2023/12/02 01:49:02;;;;;;;6.35;4.90;;;;;;;1.50;63.30;99186.03;10406334;28;20139;-62
2023/12/02 01:54:04;;;;;;;5.15;4.47;;;;;;;1.50;64.23;99186.03;10401748;28;20064;-62
2023/12/02 01:59:06;;;;;;;5.68;4.50;;;;;;;1.55;63.41;99200.56;10422085;28;20049;-63
2023/12/02 02:04:07;;;;;;;7.60;5.13;;;;;;;1.51;63.34;99204.31;10408096;28;20064;-62
2023/12/02 02:09:09;;;;;;;4.90;3.80;;;;;;;1.54;64.02;99201.50;10411280;28;20059;-63
2023/12/02 02:14:12;;;;;;;5.25;4.13;;;;;;;1.47;63.99;99202.81;10414418;28;20107;-63
2023/12/02 02:19:17;;;;;;;5.50;4.60;;;;;;;1.55;63.63;99182.22;10400315;28;20117;-62
2023/12/02 02:24:19;;;;;;;6.88;6.00;;;;;;;1.66;63.84;99192.06;10392560;28;20056;-64
2023/12/02 02:29:20;;;;;;;6.13;4.97;;;;;;;1.59;63.33;99191.59;10413387;28;20569;-64
2023/12/02 02:34:22;;;;;;;6.05;4.85;;;;;;;1.49;63.60;99192.25;10411615;28;20079;-61
2023/12/02 02:39:24;;;;;;;6.38;5.05;;;;;;;1.63;63.29;99179.13;10406468;28;20053;-63
2023/12/02 02:44:26;;;;;;;5.40;4.57;;;;;;;1.45;63.34;99190.72;10412092;28;20052;-63
2023/12/02 02:49:30;;;;;;;6.47;5.10;;;;;;;1.40;64.15;99189.22;10403191;28;20049;-62
2023/12/02 02:54:32;;;;;;;5.00;4.28;;;;;;;1.60;64.75;99200.28;10406864;28;20448;-61
2023/12/02 02:59:34;;;;;;;5.15;4.45;;;;;;;1.52;64.26;99189.44;10408404;28;20051;-62
2023/12/02 03:04:35;;;;;;;5.97;4.55;;;;;;;1.68;63.34;99205.94;10409849;28;20190;-63
2023/12/02 03:09:37;;;;;;;6.18;4.90;;;;;;;1.75;63.13;99203.78;10415641;28;21299;-63
2023/12/02 03:14:38;;;;;;;5.80;5.18;;;;;;;1.75;64.22;99211.66;10409241;28;20057;-62
2023/12/02 03:19:40;;;;;;;6.13;4.47;;;;;;;1.77;63.80;99201.88;10406941;28;21011;-62
2023/12/02 03:24:42;;;;;;;5.63;4.53;;;;;;;1.68;63.49;99195.44;10412123;28;20049;-63
2023/12/02 03:29:43;;;;;;;5.95;4.57;;;;;;;1.57;63.01;99208.34;10407380;28;20072;-63
2023/12/02 03:34:45;;;;;;;5.22;4.22;;;;;;;1.37;64.46;99215.63;10412627;28;20084;-62
2023/12/02 03:39:46;;;;;;;7.47;4.80;;;;;;;1.30;64.58;99206.44;10415841;28;20128;-63
2023/12/02 03:44:48;;;;;;;5.05;3.88;;;;;;;1.39;63.47;99229.47;10362008;28;20056;-65
2023/12/02 03:49:50;;;;;;;4.13;3.30;;;;;;;1.30;63.81;99222.16;10362031;28;20058;-63
2023/12/02 03:54:51;;;;;;;4.70;3.83;;;;;;;1.46;63.48;99237.03;10396489;28;20079;-64
2023/12/02 03:59:53;;;;;;;3.92;3.53;;;;;;;1.11;64.39;99242.50;10410628;28;20076;-62
2023/12/02 04:04:54;;;;;;;4.70;3.25;;;;;;;1.47;63.85;99249.19;10410835;28;20053;-62
2023/12/02 04:09:56;;;;;;;3.20;2.90;;;;;;;1.51;62.87;99248.06;10416778;28;20060;-62
2023/12/02 04:14:57;;;;;;;2.85;2.58;;;;;;;1.51;62.26;99240.19;10417015;28;20088;-63
2023/12/02 04:20:08;;;;;;;3.70;2.80;;;;;;;1.28;63.00;99234.53;10410723;28;20056;-62
2023/12/02 04:25:10;;;;;;;2.90;2.60;;;;;;;1.24;62.55;99243.50;10416210;28;20865;-63
2023/12/02 04:30:12;;;;;;;3.22;2.45;;;;;;;1.39;63.15;99247.84;10372636;28;20259;-63
2023/12/02 04:35:16;;;;;;;3.25;2.72;;;;;;;1.37;62.45;99256.75;10420321;28;20053;-64
2023/12/02 04:40:18;;;;;;;2.95;2.60;;;;;;;1.22;63.15;99267.19;10413805;28;20109;-63
2023/12/02 04:45:19;;;;;;;2.80;2.22;;;;;;;1.45;63.03;99274.66;10411785;28;20048;-63
2023/12/02 04:50:21;;;;;;;3.88;2.65;;;;;;;1.03;62.79;99283.09;10420082;28;20056;-63
2023/12/02 04:55:22;;;;;;;3.10;2.10;;;;;;;1.17;62.56;99291.97;10412115;28;20209;-62
2023/12/02 05:00:24;;;;;;;2.78;2.15;;;;;;;0.95;63.07;99274.84;10411089;28;20118;-63
2023/12/02 05:05:27;;;;;;;2.50;2.30;;;;;;;0.90;62.24;99281.28;10422469;28;20045;-63
2023/12/02 05:10:29;;;;;;;2.35;2.08;;;;;;;0.68;63.53;99287.72;10399295;28;20094;-62
2023/12/02 05:15:30;;;;;;;3.15;2.50;;;;;;;1.06;63.57;99303.91;10411579;28;20071;-63
2023/12/02 05:20:33;;;;;;;3.05;2.53;;;;;;;1.19;63.35;99311.09;10423109;28;20048;-62
2023/12/02 05:25:35;;;;;;;3.70;3.22;;;;;;;1.03;63.04;99304.06;10412183;28;20080;-62
2023/12/02 05:30:38;;;;;;;3.17;2.83;;;;;;;1.00;63.09;99330.47;10401310;28;20049;-63
2023/12/02 05:35:40;;;;;;;3.85;3.05;;;;;;;0.83;63.40;99334.03;10403565;28;20060;-63
2023/12/02 05:40:41;;;;;;;4.38;3.92;;;;;;;1.03;62.46;99366.97;10410212;28;20717;-64
2023/12/02 05:45:43;;;;;;;3.50;3.20;;;;;;;1.19;62.83;99376.63;10410092;28;20060;-63
2023/12/02 05:50:45;;;;;;;3.47;3.17;;;;;;;1.21;63.09;99375.59;10413909;28;20179;-63
2023/12/02 05:55:46;;;;;;;5.80;3.40;;;;;;;1.26;62.15;99385.81;10411907;28;20067;-62
2023/12/02 06:00:48;;;;;;;3.30;3.00;;;;;;;1.20;61.38;99394.03;10417203;28;20053;-63
2023/12/02 06:05:50;;;;;;;3.65;3.22;;;;;;;0.83;63.40;99394.28;10424211;28;20559;-63
2023/12/02 06:10:51;;;;;;;3.28;2.90;;;;;;;1.08;62.20;99397.34;10415229;28;20053;-63
2023/12/02 06:15:53;;;;;;;4.20;3.15;;;;;;;1.26;61.87;99392.84;10407771;28;20049;-63
2023/12/02 06:20:57;;;;;;;3.28;2.83;;;;;;;1.24;61.89;99395.56;10408319;28;20045;-63
2023/12/02 06:25:59;;;;;;;3.60;2.88;;;;;;;1.01;61.59;99361.00;10416240;28;20057;-64
2023/12/02 06:31:01;;;;;;;3.50;3.20;;;;;;;0.84;62.17;99398.59;10399623;28;20075;-64
2023/12/02 06:36:03;;;;;;;4.88;4.18;;;;;;;1.02;63.93;99411.63;10411443;28;20135;-62
2023/12/02 06:41:04;;;;;;;5.13;4.00;;;;;;;1.26;63.69;99414.66;10417009;28;20060;-62
2023/12/02 06:46:06;;;;;;;4.75;4.18;;;;;;;1.30;63.87;99424.06;10410814;28;20052;-64
2023/12/02 06:51:10;;;;;;;5.65;5.10;;;;;;;1.47;63.38;99443.25;10412815;28;20462;-64
2023/12/02 06:56:18;;;;;;;4.90;4.40;;;;;;;1.44;63.71;99459.16;10411069;28;20057;-65
2023/12/02 07:01:31;;;;;;;5.00;4.20;;;;;;;1.39;62.69;99467.28;10412286;28;20041;-63
2023/12/02 07:06:33;;;;;;;5.57;4.22;;;;;;;0.81;63.87;99466.03;10400067;28;20663;-62
2023/12/02 07:11:35;;;;;;;4.78;4.30;;;;;;;1.08;64.18;99466.31;10391203;28;20087;-64
2023/12/02 07:16:36;;;;;;;5.40;4.65;;;;;;;0.76;64.11;99450.56;10402353;28;20142;-65
2023/12/02 07:21:38;;;;;;;5.15;4.13;;;;;;;1.10;64.49;99469.72;10399707;28;20083;-65
2023/12/02 07:26:41;;;;;;;5.72;4.68;;;;;;;1.05;63.94;99475.22;10415489;28;21021;-65
2023/12/02 07:31:45;;;;;;;6.35;5.65;;;;;;;1.08;63.74;99489.91;10419283;28;20627;-62
2023/12/02 07:36:46;;;;;;;6.05;4.60;;;;;;;1.17;62.86;99488.59;10408614;28;20148;-63
2023/12/02 07:41:49;;;;;;;5.90;5.10;;;;;;;1.28;62.30;99490.66;10411884;28;20052;-64
2023/12/02 07:46:51;;;;;;;5.55;4.60;;;;;;;1.05;61.78;99484.84;10402664;28;20057;-67
2023/12/02 07:51:55;;;;;;;5.30;4.25;;;;;;;1.09;62.69;99512.59;10423653;28;20049;-67
2023/12/02 07:56:58;;;;;;;6.30;4.50;;;;;;;1.00;61.54;99524.41;10404535;28;20044;-67
2023/12/02 08:02:02;;;;;;;5.25;4.55;;;;;;;1.02;61.53;99532.19;10411514;28;20114;-67
2023/12/02 08:07:03;;;;;;;5.65;4.70;;;;;;;1.00;62.13;99527.03;10389802;28;20110;-64
2023/12/02 08:12:05;;;;;;;4.95;4.45;;;;;;;1.13;62.17;99544.75;10407782;28;20092;-66
2023/12/02 08:17:08;;;;;;;5.70;4.25;;;;;;;0.99;61.98;99558.56;10409519;28;20745;-66
2023/12/02 08:22:10;;;;;;;4.65;3.90;;;;;;;0.80;62.16;99567.38;10380182;28;20057;-67
2023/12/02 08:27:11;;;;;;;5.03;4.53;;;;;;;0.95;62.03;99559.66;10415189;28;20057;-65
2023/12/02 08:32:13;;;;;;;4.80;4.28;;;;;;;1.01;61.35;99562.81;10415646;28;20532;-65
2023/12/02 08:37:14;;;;;;;4.93;4.22;;;;;;;1.08;61.44;99572.97;10409512;28;20107;-63
2023/12/02 08:42:16;;;;;;;4.35;3.45;;;;;;;1.13;60.95;99581.44;10408357;28;20052;-65
2023/12/02 08:47:19;;;;;;;4.00;3.33;;;;;;;1.19;60.21;99573.25;10408706;28;20566;-66
2023/12/02 08:52:22;;;;;;;4.45;3.20;;;;;;;1.05;59.67;99577.44;10414385;28;20498;-64
2023/12/02 08:57:25;;;;;;;3.83;3.13;;;;;;;1.21;59.78;99579.25;10408903;28;20154;-63
2023/12/02 09:02:26;;;;;;;4.72;3.78;;;;;;;1.15;58.91;99597.94;10415821;28;20077;-62
2023/12/02 09:07:29;;;;;;;4.60;3.25;;;;;;;0.96;59.40;99591.03;10418393;28;20200;-64
2023/12/02 09:12:31;;;;;;;4.00;3.20;;;;;;;0.99;58.95;99601.38;10413799;28;20060;-64
2023/12/02 09:18:09;;;;;;;5.43;3.67;;;;;;;1.29;58.98;99603.31;10408517;28;20507;-63
2023/12/02 09:23:13;;;;;;;3.47;3.17;;;;;;;1.30;59.47;99615.47;10411911;28;20494;-64
2023/12/02 09:28:23;;;;;;;3.70;3.40;;;;;;;1.35;58.85;99623.09;10414636;28;20048;-64
2023/12/02 09:33:26;;;;;;;3.95;3.50;;;;;;;1.45;59.10;99631.34;10400203;28;20048;-63
2023/12/02 09:38:28;;;;;;;4.32;3.92;;;;;;;1.47;59.43;99639.97;10412172;28;20565;-64
2023/12/02 09:43:51;;;;;;;5.13;3.90;;;;;;;1.37;59.01;99631.75;10419591;28;20124;-64
2023/12/02 09:49:09;;;;;;;5.47;3.90;;;;;;;1.40;59.58;99649.97;10398416;28;20068;-64
2023/12/02 09:54:31;;;;;;;5.38;4.20;;;;;;;1.29;59.11;99654.91;10412664;28;20111;-64
2023/12/02 09:59:49;;;;;;;4.47;3.80;;;;;;;1.40;58.45;99669.16;10405485;28;20118;-65
2023/12/02 10:04:59;;;;;;;4.82;3.38;;;;;;;1.43;58.50;99676.03;10408483;28;20064;-63
2023/12/02 10:10:09;;;;;;;6.88;4.20;;;;;;;1.10;59.29;99665.50;10412632;28;20057;-64
2023/12/02 10:15:12;;;;;;;4.40;3.88;;;;;;;1.26;59.67;99678.66;10411846;28;20049;-64
2023/12/02 10:20:16;;;;;;;4.97;3.78;;;;;;;0.99;59.80;99690.47;10405753;28;20511;-64
2023/12/02 10:25:46;;;;;;;4.60;3.60;;;;;;;0.90;60.17;99690.91;10401722;28;20048;-64
2023/12/02 10:30:58;;;;;;;4.15;3.35;;;;;;;1.20;59.02;99674.56;10401532;28;20049;-63
2023/12/02 10:36:05;;;;;;;7.22;3.42;;;;;;;1.40;58.73;99678.81;10416164;28;20125;-64
2023/12/02 10:41:29;;;;;;;3.25;2.95;;;;;;;1.47;58.28;99681.94;10419758;28;20163;-62
2023/12/02 10:46:32;;;;;;;4.15;3.53;;;;;;;1.56;57.75;99686.72;10402131;28;21067;-62
2023/12/02 10:51:39;;;;;;;4.03;3.45;;;;;;;1.61;57.79;99676.84;10406285;28;20563;-64
2023/12/02 10:56:45;;;;;;;3.90;3.30;;;;;;;1.59;57.25;99678.69;10397852;28;20056;-63
2023/12/02 11:02:19;;;;;;;3.97;3.53;;;;;;;1.48;58.91;99678.41;10408323;28;20049;-63
2023/12/02 11:07:23;;;;;;;4.15;3.45;;;;;;;1.49;58.05;99670.47;10395729;28;20061;-63
2023/12/02 11:12:46;;;;;;;4.20;3.65;;;;;;;1.56;58.57;99676.22;10410037;28;20414;-63
2023/12/02 11:18:05;;;;;;;4.25;3.78;;;;;;;1.48;58.14;99683.66;10400433;28;20255;-63
2023/12/02 11:23:45;;;;;;;4.70;3.63;;;;;;;1.40;58.14;99689.31;10400476;28;20044;-62
2023/12/02 11:28:55;;;;;;;5.50;3.58;;;;;;;1.41;57.91;99697.09;10373730;28;20071;-64
2023/12/02 11:34:24;;;;;;;5.88;4.35;;;;;;;1.44;58.21;99692.59;10408779;28;20083;-63
2023/12/02 11:39:41;;;;;;;5.55;4.05;;;;;;;1.57;58.62;99702.38;10391409;28;20052;-65
2023/12/02 11:45:16;;;;;;;4.25;3.63;;;;;;;1.45;58.50;99671.53;10408640;28;21401;-62
2023/12/02 11:50:34;;;;;;;4.53;3.20;;;;;;;1.43;58.07;99720.63;10405681;28;20525;-63
2023/12/02 11:55:59;;;;;;;4.53;4.13;;;;;;;1.53;57.63;99731.47;10401699;28;20048;-64
2023/12/02 12:01:12;;;;;;;4.90;3.72;;;;;;;1.56;57.56;99732.19;10397860;28;20049;-66
2023/12/02 12:06:33;;;;;;;4.05;3.30;;;;;;;1.03;58.58;99726.06;10414777;28;20052;-62
2023/12/02 12:11:36;;;;;;;4.55;4.05;;;;;;;1.29;58.50;99737.06;10399976;28;20165;-65
2023/12/02 12:16:38;;;;;;;4.65;3.95;;;;;;;1.58;58.69;99751.31;10419603;28;20164;-63
2023/12/02 12:21:47;;;;;;;6.25;5.05;;;;;;;1.66;58.37;99758.78;10414476;28;20210;-64
2023/12/02 12:26:49;;;;;;;4.85;4.35;;;;;;;1.77;58.67;99772.19;10404180;28;20991;-64
2023/12/02 12:31:50;;;;;;;4.82;4.10;;;;;;;1.68;57.74;99769.19;10413018;28;20612;-63
2023/12/02 12:36:52;;;;;;;3.95;3.45;;;;;;;1.60;58.04;99782.69;10397229;28;20765;-63
2023/12/02 12:41:53;;;;;;;4.63;3.47;;;;;;;1.42;58.25;99792.34;10414985;28;20741;-65
2023/12/02 12:46:56;;;;;;;5.18;4.05;;;;;;;1.49;58.41;99792.91;10408209;28;20102;-63
2023/12/02 12:52:03;;;;;;;8.38;4.53;;;;;;;1.68;57.46;99813.78;10410230;28;20152;-63
2023/12/02 12:57:25;;;;;;;4.20;3.58;;;;;;;1.81;57.53;99819.28;10387015;28;20164;-65
2023/12/02 13:02:45;;;;;;;4.63;3.90;;;;;;;1.35;58.13;99828.53;10415284;28;20045;-64
2023/12/02 13:08:28;;;;;;;5.88;4.13;;;;;;;1.62;57.86;99825.44;10414449;28;20055;-63
2023/12/02 13:13:31;;;;;;;4.82;3.63;;;;;;;1.36;57.94;99819.72;10393280;28;20041;-64
2023/12/02 13:18:33;;;;;;;4.03;3.63;;;;;;;1.62;56.37;99851.69;10401839;28;20254;-63
2023/12/02 13:23:35;;;;;;;4.75;4.07;;;;;;;1.25;57.37;99853.50;10406676;28;20214;-62
2023/12/02 13:28:40;;;;;;;6.32;4.30;;;;;;;1.39;57.55;99856.28;10406335;28;20060;-64
2023/12/02 13:33:56;;;;;;;5.18;4.68;;;;;;;1.65;58.30;99866.44;10409337;28;20155;-63
2023/12/02 13:39:08;;;;;;;4.15;3.65;;;;;;;1.80;57.21;99870.06;10413054;28;20064;-63
2023/12/02 13:44:12;;;;;;;6.07;4.57;;;;;;;1.57;57.16;99885.19;10403549;28;20139;-63
2023/12/02 13:49:24;;;;;;;5.55;4.30;;;;;;;1.31;57.79;99899.56;10415215;28;20071;-63
2023/12/02 13:54:44;;;;;;;4.80;4.03;;;;;;;0.93;57.72;99892.59;10415166;28;20052;-63
2023/12/02 13:59:47;;;;;;;6.07;3.95;;;;;;;0.90;59.06;99907.59;10409912;28;20068;-64
2023/12/02 14:05:03;;;;;;;5.45;4.03;;;;;;;1.10;58.50;99911.94;10416209;28;20049;-63
2023/12/02 14:10:07;;;;;;;4.45;3.97;;;;;;;0.88;58.95;99911.13;10410473;28;20547;-64
2023/12/02 14:15:33;;;;;;;5.85;4.95;;;;;;;0.94;59.40;99928.34;10407958;28;20764;-63
2023/12/02 14:21:03;;;;;;;4.90;4.00;;;;;;;1.28;58.73;99925.94;10405256;28;20534;-63
2023/12/02 14:26:29;;;;;;;5.43;4.35;;;;;;;1.40;58.04;99935.84;10403062;28;20048;-63
2023/12/02 14:31:59;;;;;;;5.43;3.80;;;;;;;0.89;58.04;99943.44;10406277;28;20052;-64
2023/12/02 14:37:38;;;;;;;6.05;4.18;;;;;;;0.49;60.14;99950.44;10412322;28;20053;-64
2023/12/02 14:42:58;;;;;;;5.38;4.80;;;;;;;0.91;58.81;99961.72;10412903;28;20048;-65
2023/12/02 14:48:11;;;;;;;5.68;3.95;;;;;;;1.02;57.80;99962.94;10410904;28;20041;-64
2023/12/02 14:53:19;;;;;;;10.75;4.75;;;;;;;1.05;58.02;99968.03;10410378;28;20041;-63
2023/12/02 14:58:28;;;;;;;3.90;3.50;;;;;;;1.39;58.14;99973.47;10406475;28;20134;-63
2023/12/02 15:03:33;;;;;;;5.70;3.60;;;;;;;1.22;58.18;99995.25;10404111;28;20064;-64
2023/12/02 15:08:40;;;;;;;5.75;4.25;;;;;;;1.52;57.79;100002.63;10412242;28;20172;-63
2023/12/02 15:13:43;;;;;;;5.30;4.45;;;;;;;1.35;56.72;100011.25;10408542;28;20052;-65
2023/12/02 15:18:45;;;;;;;6.00;4.22;;;;;;;1.53;57.10;100025.28;10401118;28;20532;-63
2023/12/02 15:23:47;;;;;;;7.50;4.53;;;;;;;1.62;56.60;100024.00;10413365;28;20804;-63
2023/12/02 15:28:53;;;;;;;5.65;4.40;;;;;;;1.72;56.45;100036.63;10405009;28;20047;-62
2023/12/02 15:33:58;;;;;;;6.38;4.63;;;;;;;1.62;56.20;100035.34;10412198;28;20129;-65
2023/12/02 15:39:04;;;;;;;6.45;4.50;;;;;;;1.71;55.98;100049.81;10411110;28;21231;-63
2023/12/02 15:44:06;;;;;;;5.35;4.65;;;;;;;1.47;57.02;100052.69;10387967;28;20098;-64
2023/12/02 15:49:12;;;;;;;5.57;4.30;;;;;;;1.57;55.65;100058.34;10401467;28;20203;-63
2023/12/02 15:54:18;;;;;;;5.30;4.53;;;;;;;1.38;55.54;100043.47;10395613;28;20650;-64
2023/12/02 15:59:22;;;;;;;6.10;5.17;;;;;;;1.52;55.87;100086.56;10398851;28;20045;-63
2023/12/02 16:04:26;;;;;;;5.53;4.22;;;;;;;1.73;56.81;100096.06;10408977;28;20095;-63
2023/12/02 16:09:29;;;;;;;6.10;4.68;;;;;;;1.77;55.91;100081.88;10397956;28;20079;-62
2023/12/02 16:14:33;;;;;;;4.82;4.30;;;;;;;1.92;55.63;100108.31;10390673;28;20068;-63
2023/12/02 16:19:35;;;;;;;6.53;4.53;;;;;;;1.85;55.57;100113.03;10408364;28;20307;-63
2023/12/02 16:24:38;;;;;;;4.95;4.43;;;;;;;1.91;55.32;100117.16;10396187;28;20503;-66
2023/12/02 16:29:51;;;;;;;5.30;4.15;;;;;;;1.90;56.35;100131.19;10410510;28;20063;-63
2023/12/02 16:34:52;;;;;;;5.72;4.30;;;;;;;1.99;55.38;100122.03;10403286;28;20052;-61
2023/12/02 16:39:54;;;;;;;7.43;4.20;;;;;;;2.03;56.34;100134.09;10404983;28;20550;-64
2023/12/02 16:44:55;;;;;;;5.80;4.65;;;;;;;2.02;56.21;100148.97;10402485;28;20048;-63
2023/12/02 16:49:58;;;;;;;6.70;4.82;;;;;;;2.07;56.24;100151.38;10393012;28;20060;-64
2023/12/02 16:55:09;;;;;;;6.03;4.88;;;;;;;2.04;56.68;100165.53;10388189;28;20064;-61
2023/12/02 17:00:18;;;;;;;6.32;4.80;;;;;;;2.03;56.67;100174.31;10413628;28;20662;-65
2023/12/02 17:05:31;;;;;;;6.35;5.65;;;;;;;2.11;56.56;100168.72;10412326;28;20049;-63
2023/12/02 17:10:52;;;;;;;5.90;4.72;;;;;;;2.11;56.38;100180.06;10421015;28;20060;-63
2023/12/02 17:15:53;;;;;;;5.13;4.07;;;;;;;1.82;56.56;100189.28;10438470;28;20060;-62
2023/12/02 17:20:55;;;;;;;6.07;5.07;;;;;;;1.99;56.95;100190.28;10414447;28;20065;-64
2023/12/02 17:25:58;;;;;;;6.55;5.95;;;;;;;1.97;56.20;100189.50;10409720;28;20056;-63
2023/12/02 17:31:00;;;;;;;8.00;6.25;;;;;;;1.89;56.32;100195.97;10419212;28;20055;-63
2023/12/02 17:36:01;;;;;;;6.88;4.90;;;;;;;1.80;56.31;100203.38;10415886;28;20134;-62
2023/12/02 17:41:06;;;;;;;5.20;4.68;;;;;;;1.76;56.62;100200.91;10418778;28;20045;-63
2023/12/02 17:46:07;;;;;;;5.93;4.55;;;;;;;1.84;56.57;100225.97;10392308;28;20049;-63
2023/12/02 17:51:09;;;;;;;6.10;5.18;;;;;;;1.65;56.54;100203.16;10413772;28;20049;-62
2023/12/02 17:56:11;;;;;;;7.43;5.05;;;;;;;1.56;57.45;100203.56;10416644;28;20057;-64
2023/12/02 18:01:15;;;;;;;7.00;5.25;;;;;;;1.70;56.86;100229.22;10415415;28;20055;-64
2023/12/02 18:06:20;;;;;;;7.10;5.05;;;;;;;1.57;57.13;100236.75;10411804;28;20159;-64
2023/12/02 18:11:22;;;;;;;5.55;4.85;;;;;;;1.23;57.38;100227.69;10425938;28;20048;-63
2023/12/02 18:16:23;;;;;;;5.80;5.20;;;;;;;1.32;57.56;100248.31;10408984;28;20076;-64
2023/12/02 18:21:31;;;;;;;7.78;6.55;;;;;;;1.23;57.78;100260.03;10420971;28;20104;-64
2023/12/02 18:26:34;;;;;;;7.47;5.97;;;;;;;0.96;58.38;100229.69;10407795;28;20053;-64
2023/12/02 18:31:37;;;;;;;6.47;5.35;;;;;;;1.15;57.84;100271.75;10411415;28;20056;-64
2023/12/02 18:36:41;;;;;;;6.60;5.75;;;;;;;1.17;58.53;100269.91;10408673;28;20999;-64
2023/12/02 18:41:45;;;;;;;7.03;6.20;;;;;;;1.24;58.86;100281.84;10418167;28;20059;-64
2023/12/02 18:46:46;;;;;;;8.43;6.28;;;;;;;1.06;58.14;100305.28;10408275;28;20056;-65
2023/12/02 18:51:47;;;;;;;7.70;6.68;;;;;;;1.04;58.81;100294.00;10397374;28;20062;-63
2023/12/02 18:56:49;;;;;;;7.15;6.10;;;;;;;1.04;58.68;100311.53;10408445;28;20134;-66
2023/12/02 19:01:50;;;;;;;8.57;6.60;;;;;;;0.84;59.26;100307.91;10412151;28;20135;-63
2023/12/02 19:06:52;;;;;;;9.68;8.30;;;;;;;1.02;59.55;100319.44;10400495;28;20575;-65
2023/12/02 19:11:54;;;;;;;8.93;7.50;;;;;;;0.87;59.55;100325.28;10423871;28;20054;-66
2023/12/02 19:16:56;;;;;;;9.15;7.53;;;;;;;0.99;59.81;100335.31;10398160;28;20797;-66
2023/12/02 19:21:59;;;;;;;9.57;8.48;;;;;;;1.03;59.35;100338.63;10406206;28;20084;-67
2023/12/02 19:27:00;;;;;;;9.90;8.52;;;;;;;0.72;59.39;100294.44;10413371;28;20095;-63
2023/12/02 19:32:02;;;;;;;11.40;9.40;;;;;;;1.03;59.50;100349.13;10408467;28;20053;-63
2023/12/02 19:37:03;;;;;;;12.45;9.00;;;;;;;1.15;59.51;100345.16;10406121;28;20565;-64
2023/12/02 19:42:07;;;;;;;10.63;8.55;;;;;;;1.22;59.31;100354.50;10411300;28;20059;-63
2023/12/02 19:47:11;;;;;;;11.15;9.27;;;;;;;1.26;59.18;100358.69;10406972;28;20155;-65
2023/12/02 19:52:14;;;;;;;12.55;9.45;;;;;;;1.36;58.98;100360.03;10410313;28;20049;-63
2023/12/02 19:57:15;;;;;;;13.02;9.27;;;;;;;1.27;59.30;100364.81;10395363;28;20057;-66
2023/12/02 20:02:20;;;;;;;12.20;10.05;;;;;;;1.38;59.24;100368.72;10401648;28;20059;-64
2023/12/02 20:07:21;;;;;;;12.52;9.90;;;;;;;1.32;59.14;100366.34;10412942;28;20072;-64
2023/12/02 20:12:22;;;;;;;11.88;9.60;;;;;;;1.33;59.16;100381.13;10406757;28;20057;-65
2023/12/02 20:17:24;;;;;;;12.00;10.45;;;;;;;1.15;59.33;100366.16;10408514;28;20635;-65
2023/12/02 20:22:27;;;;;;;12.32;9.65;;;;;;;1.18;59.19;100397.50;10415394;28;20071;-65
2023/12/02 20:27:28;;;;;;;15.18;11.10;;;;;;;1.18;59.55;100407.97;10410308;28;20140;-65
2023/12/02 20:32:31;;;;;;;14.65;12.32;;;;;;;1.05;59.38;100405.84;10423069;28;20057;-64
2023/12/02 20:37:32;;;;;;;13.55;11.52;;;;;;;0.98;59.17;100400.91;10414376;28;20049;-65
2023/12/02 20:42:33;;;;;;;13.18;11.13;;;;;;;0.97;59.21;100413.13;10421326;28;20059;-66
2023/12/02 20:47:36;;;;;;;13.00;10.40;;;;;;;0.77;59.81;100397.31;10407190;28;20047;-66
2023/12/02 20:52:37;;;;;;;13.90;10.77;;;;;;;0.74;60.44;100398.28;10423168;28;20061;-66
2023/12/02 20:57:39;;;;;;;13.40;11.05;;;;;;;0.99;59.36;100411.31;10415105;28;20065;-65
2023/12/02 21:02:41;;;;;;;15.05;11.82;;;;;;;0.91;59.80;100409.91;10416112;28;20044;-65
2023/12/02 21:07:42;;;;;;;15.23;11.45;;;;;;;0.90;59.89;100395.91;10406278;28;20044;-66
2023/12/02 21:12:44;;;;;;;15.73;11.80;;;;;;;0.81;60.13;100404.13;10364981;28;20376;-64
2023/12/02 21:17:46;;;;;;;14.52;11.68;;;;;;;0.84;60.26;100414.50;10411015;28;20049;-65
2023/12/02 21:22:49;;;;;;;13.75;11.57;;;;;;;0.83;60.46;100418.06;10415582;28;20065;-65
2023/12/02 21:27:50;;;;;;;14.27;12.15;;;;;;;0.81;60.71;100422.47;10409545;28;21071;-65
2023/12/02 21:32:55;;;;;;;15.57;12.38;;;;;;;0.90;60.36;100424.75;10404333;28;20054;-64
2023/12/02 21:37:59;;;;;;;15.27;13.10;;;;;;;0.88;60.25;100431.84;10394592;28;20049;-65
2023/12/02 21:43:03;;;;;;;17.83;12.82;;;;;;;0.95;60.36;100428.06;10417975;28;20063;-66
2023/12/02 21:48:06;;;;;;;15.87;13.20;;;;;;;1.07;60.74;100442.47;10420264;28;20179;-65
2023/12/02 21:53:09;;;;;;;11.45;9.23;;;;;;;1.00;60.64;100448.88;10401407;28;20407;-65
2023/12/02 21:58:10;;;;;;;15.13;12.15;;;;;;;1.03;60.21;100461.84;10420757;28;20053;-64
2023/12/02 22:03:26;;;;;;;14.57;11.95;;;;;;;1.09;60.22;100455.53;10412505;28;20041;-64
2023/12/02 22:08:27;;;;;;;14.48;12.20;;;;;;;1.16;59.52;100475.38;10413615;28;20044;-64
2023/12/02 22:13:34;;;;;;;14.93;11.90;;;;;;;1.05;61.02;100463.53;10411034;28;20049;-60
2023/12/02 22:18:39;;;;;;;14.15;12.48;;;;;;;1.22;59.56;100493.50;10388475;28;20056;-63
2023/12/02 22:23:40;;;;;;;12.77;11.17;;;;;;;1.10;60.31;100481.69;10400654;28;20048;-64
2023/12/02 22:28:43;;;;;;;14.32;12.27;;;;;;;1.20;60.19;100493.56;10409948;28;20295;-63
2023/12/02 22:33:45;;;;;;;14.07;11.77;;;;;;;1.12;60.67;100502.63;10412906;28;20048;-66
2023/12/02 22:38:48;;;;;;;14.23;12.55;;;;;;;1.15;60.99;100507.75;10417468;28;20099;-64
2023/12/02 22:43:50;;;;;;;14.68;13.07;;;;;;;1.09;61.36;100518.47;10406956;28;20084;-63
2023/12/02 22:48:51;;;;;;;14.50;12.55;;;;;;;0.90;61.17;100477.16;10400879;28;20067;-64
2023/12/02 22:53:57;;;;;;;14.63;11.70;;;;;;;1.00;61.02;100511.78;10419524;28;20523;-63
2023/12/02 22:58:59;;;;;;;13.27;11.10;;;;;;;1.03;61.22;100525.63;10347325;28;20111;-63
2023/12/02 23:04:10;;;;;;;13.95;12.07;;;;;;;0.88;61.75;100521.78;10417018;28;20045;-64
2023/12/02 23:09:39;;;;;;;13.48;11.55;;;;;;;0.88;61.49;100532.28;10406566;28;20699;-64
2023/12/02 23:14:51;;;;;;;12.57;10.77;;;;;;;0.97;61.09;100538.97;10404117;28;20083;-63
2023/12/02 23:19:59;;;;;;;12.63;10.95;;;;;;;0.69;61.08;100539.94;10410228;28;20049;-63
2023/12/02 23:25:05;;;;;;;11.43;10.18;;;;;;;0.50;62.10;100534.47;10404404;28;20140;-64
2023/12/02 23:30:07;;;;;;;13.52;11.38;;;;;;;0.63;61.50;100553.28;10405413;28;20045;-64
2023/12/02 23:35:17;;;;;;;12.05;10.75;;;;;;;0.59;62.42;100551.66;10407841;28;20073;-65
2023/12/02 23:40:23;;;;;;;12.55;10.25;;;;;;;0.67;61.87;100554.84;10405091;28;20053;-63
2023/12/02 23:45:25;;;;;;;11.55;10.15;;;;;;;0.53;61.98;100562.34;10406592;28;20052;-62